createdAt,value
2018-04-12T00:00:52.839Z,5.1
2018-04-12T00:01:55.514Z,5.1
2018-04-12T00:02:57.889Z,5
2018-04-12T00:04:00.272Z,5.1
2018-04-12T00:05:03.222Z,5.1
2018-04-12T00:06:05.592Z,5.1
2018-04-12T00:07:07.973Z,5.1
2018-04-12T00:08:10.355Z,5.1
2018-04-12T00:09:12.720Z,5.1
2018-04-12T00:10:15.091Z,5
2018-04-12T00:11:17.461Z,5
2018-04-12T00:12:20.121Z,5.1
2018-04-12T00:13:22.487Z,5
2018-04-12T00:14:25.148Z,5.2
2018-04-12T00:15:27.894Z,5.1
2018-04-12T00:16:30.283Z,5.1
2018-04-12T00:17:32.664Z,5
2018-04-12T00:18:35.039Z,5.1
2018-04-12T00:19:37.404Z,5.1
2018-04-12T00:20:39.782Z,5.1
2018-04-12T00:21:42.158Z,5.1
2018-04-12T00:22:44.822Z,5
2018-04-12T00:23:47.206Z,5.1
2018-04-12T00:24:49.568Z,5.1
2018-04-12T00:25:51.954Z,5.1
2018-04-12T00:26:54.322Z,5.1
2018-04-12T00:27:56.697Z,5.2
2018-04-12T00:28:59.737Z,5
2018-04-12T00:30:02.109Z,5.1
2018-04-12T00:31:04.479Z,5
2018-04-12T00:32:07.475Z,5.1
2018-04-12T00:33:10.127Z,5.1
2018-04-12T00:34:12.887Z,5.1
2018-04-12T00:35:15.541Z,5
2018-04-12T00:36:17.910Z,5.3
2018-04-12T00:37:20.289Z,5.2
2018-04-12T00:38:22.665Z,5.1
2018-04-12T00:39:25.324Z,5.2
2018-04-12T00:40:27.995Z,5.1
2018-04-12T00:41:30.369Z,5.1
2018-04-12T00:42:32.745Z,5
2018-04-12T00:43:35.115Z,5.1
2018-04-12T00:44:37.490Z,5.1
2018-04-12T00:45:39.853Z,5.3
2018-04-12T00:46:42.233Z,5
2018-04-12T00:47:44.884Z,5.1
2018-04-12T00:48:47.250Z,5
2018-04-12T00:49:49.631Z,5
2018-04-12T00:50:52.301Z,5
2018-04-12T00:51:54.666Z,5.1
2018-04-12T00:52:57.047Z,5.2
2018-04-12T00:53:59.417Z,5.1
2018-04-12T00:55:02.075Z,5.1
2018-04-12T00:56:04.734Z,5.1
2018-04-12T00:57:07.104Z,5.2
2018-04-12T00:58:09.755Z,5.1
2018-04-12T00:59:12.149Z,5
2018-04-12T01:00:14.522Z,5.2
2018-04-12T01:01:16.898Z,5
2018-04-12T01:02:19.585Z,5.1
2018-04-12T01:03:21.948Z,5.1
2018-04-12T01:04:24.320Z,5
2018-04-12T01:05:27.368Z,5
2018-04-12T01:06:29.734Z,5.1
2018-04-12T01:07:32.102Z,5
2018-04-12T01:08:34.488Z,5
2018-04-12T01:09:36.865Z,5
2018-04-12T01:10:39.247Z,5.2
2018-04-12T01:11:42.010Z,5.1
2018-04-12T01:12:44.366Z,5.2
2018-04-12T01:13:46.745Z,5.1
2018-04-12T01:14:49.127Z,5.1
2018-04-12T01:15:51.492Z,5.1
2018-04-12T01:16:54.156Z,5
2018-04-12T01:17:56.530Z,5.1
2018-04-12T01:18:58.910Z,5.1
2018-04-12T01:20:01.287Z,5.1
2018-04-12T01:21:03.658Z,5.1
2018-04-12T01:22:06.722Z,5.1
2018-04-12T01:23:09.091Z,5.2
2018-04-12T01:24:11.457Z,5.1
2018-04-12T01:25:14.219Z,5.3
2018-04-12T01:26:16.585Z,5
2018-04-12T01:27:18.967Z,5
2018-04-12T01:28:21.349Z,5.1
2018-04-12T01:29:23.720Z,5.2
2018-04-12T01:30:26.103Z,5.1
2018-04-12T01:31:28.480Z,5
2018-04-12T01:32:30.839Z,5.1
2018-04-12T01:33:33.220Z,5
2018-04-12T01:34:35.595Z,5
2018-04-12T01:35:37.971Z,5.1
2018-04-12T01:36:40.739Z,5.1
2018-04-12T01:37:43.119Z,5.1
2018-04-12T01:38:45.481Z,5.2
2018-04-12T01:39:47.861Z,5
2018-04-12T01:40:50.234Z,5.1
2018-04-12T01:41:52.605Z,5
2018-04-12T01:42:54.978Z,5.1
2018-04-12T01:43:57.350Z,5.1
2018-04-12T01:44:59.717Z,5
2018-04-12T01:46:02.109Z,5.2
2018-04-12T01:47:04.476Z,5.1
2018-04-12T01:48:06.835Z,5
2018-04-12T01:49:09.217Z,5
2018-04-12T01:50:11.586Z,5.3
2018-04-12T01:51:13.961Z,5.1
2018-04-12T01:52:16.328Z,5.1
2018-04-12T01:53:19.145Z,5.2
2018-04-12T01:54:21.514Z,5.1
2018-04-12T01:55:23.900Z,5.1
2018-04-12T01:56:26.278Z,5
2018-04-12T01:57:28.656Z,5.1
2018-04-12T01:58:31.032Z,5.1
2018-04-12T01:59:33.978Z,5.2
2018-04-12T02:00:36.349Z,5.2
2018-04-12T02:01:38.722Z,5.1
2018-04-12T02:02:41.093Z,5.2
2018-04-12T02:03:43.477Z,5.1
2018-04-12T02:04:46.125Z,5.1
2018-04-12T02:05:48.789Z,5.3
2018-04-12T02:06:51.156Z,5.1
2018-04-12T02:07:53.531Z,5.1
2018-04-12T02:08:56.183Z,5.2
2018-04-12T02:09:58.564Z,5.1
2018-04-12T02:11:00.929Z,5.1
2018-04-12T02:12:03.308Z,5.1
2018-04-12T02:13:05.689Z,5
2018-04-12T02:14:08.351Z,5.1
2018-04-12T02:15:11.007Z,5.2
2018-04-12T02:16:13.384Z,5.3
2018-04-12T02:17:16.034Z,5.2
2018-04-12T02:18:18.405Z,5.1
2018-04-12T02:19:20.780Z,5.1
2018-04-12T02:20:23.153Z,5.1
2018-04-12T02:21:25.833Z,5.3
2018-04-12T02:22:28.209Z,5
2018-04-12T02:23:30.591Z,5.2
2018-04-12T02:24:32.966Z,5.3
2018-04-12T02:25:35.628Z,5.2
2018-04-12T02:26:38.001Z,5.1
2018-04-12T02:27:40.656Z,5.1
2018-04-12T02:28:43.038Z,5.1
2018-04-12T02:29:45.682Z,5.2
2018-04-12T02:30:48.059Z,5
2018-04-12T02:31:50.428Z,5.1
2018-04-12T02:32:52.803Z,5.1
2018-04-12T02:33:55.181Z,5.1
2018-04-12T02:34:57.585Z,5.1
2018-04-12T02:35:59.916Z,5.2
2018-04-12T02:37:02.579Z,5.1
2018-04-12T02:38:04.960Z,5
2018-04-12T02:39:07.719Z,5.1
2018-04-12T02:40:10.099Z,5.1
2018-04-12T02:41:12.858Z,5.1
2018-04-12T02:42:15.227Z,5.3
2018-04-12T02:43:18.279Z,5.2
2018-04-12T02:44:20.660Z,5.1
2018-04-12T02:45:23.033Z,5.2
2018-04-12T02:46:25.791Z,5.1
2018-04-12T02:47:28.454Z,5.2
2018-04-12T02:48:31.109Z,5.1
2018-04-12T02:49:33.776Z,5.1
2018-04-12T02:50:36.175Z,5.1
2018-04-12T02:51:38.848Z,5.1
2018-04-12T02:52:41.224Z,5
2018-04-12T02:53:43.612Z,5.1
2018-04-12T02:54:46.251Z,5.1
2018-04-12T02:55:48.921Z,5.2
2018-04-12T02:56:51.610Z,5.1
2018-04-12T02:57:54.267Z,5.1
2018-04-12T02:58:56.658Z,5.1
2018-04-12T02:59:59.030Z,5.1
2018-04-12T03:01:01.388Z,5.1
2018-04-12T03:02:04.161Z,5
2018-04-12T03:03:06.527Z,5.1
2018-04-12T03:04:08.908Z,5.1
2018-04-12T03:05:11.281Z,5.1
2018-04-12T03:06:13.663Z,5.2
2018-04-12T03:07:16.315Z,5.1
2018-04-12T03:08:18.976Z,5.2
2018-04-12T03:09:21.634Z,5.2
2018-04-12T03:10:24.017Z,5.1
2018-04-12T03:11:26.399Z,5.1
2018-04-12T03:12:29.165Z,5
2018-04-12T03:13:31.541Z,5
2018-04-12T03:14:34.196Z,5.3
2018-04-12T03:15:36.573Z,5.3
2018-04-12T03:16:38.948Z,5.2
2018-04-12T03:17:41.320Z,5.1
2018-04-12T03:18:43.988Z,5.1
2018-04-12T03:19:46.376Z,5.1
2018-04-12T03:20:48.739Z,5.1
2018-04-12T03:21:51.423Z,5.1
2018-04-12T03:22:53.807Z,5.1
2018-04-12T03:23:56.170Z,5.3
2018-04-12T03:24:58.554Z,5
2018-04-12T03:26:00.925Z,5.2
2018-04-12T03:27:03.288Z,5.1
2018-04-12T03:28:05.965Z,5.1
2018-04-12T03:29:08.618Z,5
2018-04-12T03:30:11.270Z,5.2
2018-04-12T03:31:14.514Z,5.1
2018-04-12T03:32:17.174Z,5
2018-04-12T03:33:19.548Z,5.1
2018-04-12T03:34:21.922Z,5.1
2018-04-12T03:35:24.285Z,5.1
2018-04-12T03:36:26.949Z,5.2
2018-04-12T03:37:29.603Z,5.2
2018-04-12T03:38:31.988Z,5.1
2018-04-12T03:39:34.365Z,5.1
2018-04-12T03:40:36.732Z,5.2
2018-04-12T03:41:39.103Z,5.1
2018-04-12T03:42:41.760Z,5
2018-04-12T03:43:44.133Z,5.1
2018-04-12T03:44:46.501Z,5.3
2018-04-12T03:45:49.450Z,5.2
2018-04-12T03:46:51.830Z,5.1
2018-04-12T03:47:54.497Z,5.2
2018-04-12T03:48:56.877Z,5.1
2018-04-12T03:49:59.569Z,5.1
2018-04-12T03:51:01.943Z,5.1
2018-04-12T03:52:04.309Z,5.1
2018-04-12T03:53:06.967Z,5.1
2018-04-12T03:54:09.347Z,5.2
2018-04-12T03:55:11.995Z,5.3
2018-04-12T03:56:14.368Z,5.2
2018-04-12T03:57:16.754Z,5.2
2018-04-12T03:58:19.114Z,5.2
2018-04-12T03:59:21.499Z,5.1
2018-04-12T04:00:23.867Z,5.1
2018-04-12T04:01:26.632Z,5.1
2018-04-12T04:02:29.295Z,5.2
2018-04-12T04:03:31.964Z,5.2
2018-04-12T04:04:34.336Z,5.2
2018-04-12T04:05:37.105Z,5.2
2018-04-12T04:06:39.756Z,5.1
2018-04-12T04:07:42.424Z,5.2
2018-04-12T04:08:44.799Z,5.2
2018-04-12T04:09:47.163Z,5.2
2018-04-12T04:10:49.543Z,5.2
2018-04-12T04:11:52.191Z,5.1
2018-04-12T04:12:54.587Z,5
2018-04-12T04:13:57.218Z,5.1
2018-04-12T04:14:59.589Z,5.1
2018-04-12T04:16:01.959Z,5.2
2018-04-12T04:17:04.343Z,5.3
2018-04-12T04:18:06.713Z,5.2
2018-04-12T04:19:09.091Z,5.2
2018-04-12T04:20:11.459Z,5.1
2018-04-12T04:21:13.832Z,5.1
2018-04-12T04:22:16.205Z,5.3
2018-04-12T04:23:18.591Z,5.3
2018-04-12T04:24:20.955Z,5.1
2018-04-12T04:25:23.326Z,5.1
2018-04-12T04:26:25.986Z,5.1
2018-04-12T04:27:28.745Z,5.1
2018-04-12T04:28:31.686Z,5.1
2018-04-12T04:29:34.057Z,5.1
2018-04-12T04:30:36.455Z,5.1
2018-04-12T04:31:38.815Z,5.2
2018-04-12T04:32:41.195Z,5.2
2018-04-12T04:33:43.581Z,5.1
2018-04-12T04:34:45.943Z,5.2
2018-04-12T04:35:48.327Z,5.2
2018-04-12T04:36:50.705Z,5.1
2018-04-12T04:37:53.074Z,5.2
2018-04-12T04:38:55.439Z,5.3
2018-04-12T04:39:57.817Z,5.3
2018-04-12T04:41:00.184Z,5.2
2018-04-12T04:42:02.575Z,5.2
2018-04-12T04:43:04.953Z,5.2
2018-04-12T04:44:07.320Z,5.1
2018-04-12T04:45:09.977Z,5.1
2018-04-12T04:46:12.358Z,5.2
2018-04-12T04:47:14.716Z,5.3
2018-04-12T04:48:17.515Z,5.2
2018-04-12T04:49:20.397Z,5.2
2018-04-12T04:50:22.765Z,5.2
2018-04-12T04:51:25.137Z,5.2
2018-04-12T04:52:27.498Z,5.1
2018-04-12T04:53:29.879Z,5.1
2018-04-12T04:54:32.539Z,5.1
2018-04-12T04:55:34.919Z,5.2
2018-04-12T04:56:37.280Z,5.3
2018-04-12T04:57:39.657Z,5.1
2018-04-12T04:58:42.043Z,5.2
2018-04-12T04:59:44.411Z,5.1
2018-04-12T05:00:46.783Z,5.1
2018-04-12T05:01:49.471Z,5.2
2018-04-12T05:02:52.797Z,5.2
2018-04-12T05:03:55.166Z,5.3
2018-04-12T05:04:58.121Z,5.1
2018-04-12T05:06:00.493Z,5.2
2018-04-12T05:07:02.870Z,5.3
2018-04-12T05:08:05.638Z,5.2
2018-04-12T05:09:08.006Z,5.2
2018-04-12T05:10:10.666Z,5.2
2018-04-12T05:11:13.050Z,5.2
2018-04-12T05:12:15.707Z,5.1
2018-04-12T05:13:18.087Z,5.2
2018-04-12T05:14:20.754Z,5.2
2018-04-12T05:15:23.120Z,5.2
2018-04-12T05:16:25.500Z,5.2
2018-04-12T05:17:27.876Z,5.1
2018-04-12T05:18:30.527Z,5.3
2018-04-12T05:19:32.907Z,5.2
2018-04-12T05:20:35.573Z,5.2
2018-04-12T05:21:37.940Z,5.3
2018-04-12T05:22:40.333Z,5.2
2018-04-12T05:23:42.701Z,5.1
2018-04-12T05:24:45.081Z,5.2
2018-04-12T05:25:47.836Z,5.3
2018-04-12T05:26:50.206Z,5.2
2018-04-12T05:27:52.621Z,5.2
2018-04-12T05:28:54.957Z,5.2
2018-04-12T05:29:57.332Z,5.2
2018-04-12T05:30:59.705Z,5.2
2018-04-12T05:32:02.395Z,5.2
2018-04-12T05:33:04.761Z,5.2
2018-04-12T05:34:07.508Z,5.3
2018-04-12T05:35:09.885Z,5.3
2018-04-12T05:36:12.258Z,5.3
2018-04-12T05:37:14.639Z,5.3
2018-04-12T05:38:17.018Z,5.2
2018-04-12T05:39:19.395Z,5.2
2018-04-12T05:40:22.062Z,5.4
2018-04-12T05:41:24.734Z,5.4
2018-04-12T05:42:27.389Z,5.3
2018-04-12T05:43:29.759Z,5.3
2018-04-12T05:44:32.420Z,5.4
2018-04-12T05:45:35.188Z,5.3
2018-04-12T05:46:37.546Z,5.3
2018-04-12T05:47:40.209Z,5.2
2018-04-12T05:48:42.587Z,5.2
2018-04-12T05:49:45.247Z,5.2
2018-04-12T05:50:47.618Z,5.2
2018-04-12T05:51:50.006Z,5.4
2018-04-12T05:52:52.976Z,5.4
2018-04-12T05:53:55.339Z,5.4
2018-04-12T05:54:57.716Z,5.4
2018-04-12T05:56:00.082Z,5.2
2018-04-12T05:57:02.471Z,5.2
2018-04-12T05:58:04.857Z,5.3
2018-04-12T05:59:07.229Z,5.2
2018-04-12T06:00:09.611Z,5.4
2018-04-12T06:01:11.987Z,5.3
2018-04-12T06:02:14.362Z,5.3
2018-04-12T06:03:16.740Z,5.3
2018-04-12T06:04:19.507Z,5.4
2018-04-12T06:05:21.877Z,5.4
2018-04-12T06:06:24.656Z,5.2
2018-04-12T06:07:27.420Z,5.3
2018-04-12T06:08:29.750Z,5.4
2018-04-12T06:09:32.134Z,5.3
2018-04-12T06:10:35.088Z,5.6
2018-04-12T06:11:37.465Z,5.3
2018-04-12T06:12:40.197Z,5.4
2018-04-12T06:13:42.540Z,5.3
2018-04-12T06:14:45.222Z,5.3
2018-04-12T06:15:47.598Z,5.3
2018-04-12T06:16:49.979Z,5.3
2018-04-12T06:17:52.360Z,5.2
2018-04-12T06:18:54.748Z,5.4
2018-04-12T06:19:57.119Z,5.4
2018-04-12T06:20:59.507Z,5.4
2018-04-12T06:22:01.887Z,5.3
2018-04-12T06:23:04.547Z,5.3
2018-04-12T06:24:06.923Z,5.3
2018-04-12T06:25:09.583Z,5.3
2018-04-12T06:26:11.957Z,5.5
2018-04-12T06:27:14.344Z,5.5
2018-04-12T06:28:17.001Z,5.4
2018-04-12T06:29:19.373Z,5.4
2018-04-12T06:30:22.050Z,5.3
2018-04-12T06:31:24.426Z,5.4
2018-04-12T06:32:26.805Z,5.3
2018-04-12T06:33:29.189Z,5.4
2018-04-12T06:34:32.337Z,5.4
2018-04-12T06:35:34.718Z,5.5
2018-04-12T06:36:37.101Z,5.4
2018-04-12T06:37:39.755Z,5.5
2018-04-12T06:38:42.141Z,5.4
2018-04-12T06:39:44.521Z,5.3
2018-04-12T06:40:46.891Z,5.4
2018-04-12T06:41:49.274Z,5.4
2018-04-12T06:42:51.656Z,5.4
2018-04-12T06:43:54.418Z,5.5
2018-04-12T06:44:56.793Z,5.5
2018-04-12T06:45:59.174Z,5.5
2018-04-12T06:47:01.859Z,5.4
2018-04-12T06:48:04.513Z,5.3
2018-04-12T06:49:06.897Z,5.4
2018-04-12T06:50:09.271Z,5.4
2018-04-12T06:51:11.650Z,5.4
2018-04-12T06:52:14.019Z,5.5
2018-04-12T06:53:16.397Z,5.6
2018-04-12T06:54:18.765Z,5.5
2018-04-12T06:55:21.846Z,5.5
2018-04-12T06:56:24.221Z,5.7
2018-04-12T06:57:26.603Z,5.5
2018-04-12T06:58:28.984Z,5.4
2018-04-12T06:59:31.364Z,5.5
2018-04-12T07:00:33.742Z,5.5
2018-04-12T07:01:36.119Z,5.5
2018-04-12T07:02:38.497Z,5.4
2018-04-12T07:03:40.890Z,5.4
2018-04-12T07:04:43.270Z,5.5
2018-04-12T07:05:45.927Z,5.4
2018-04-12T07:06:48.313Z,5.6
2018-04-12T07:07:50.993Z,5.5
2018-04-12T07:08:53.364Z,5.5
2018-04-12T07:09:56.127Z,5.5
2018-04-12T07:10:58.895Z,5.6
2018-04-12T07:12:01.263Z,5.5
2018-04-12T07:13:04.034Z,5.5
2018-04-12T07:14:06.417Z,5.5
2018-04-12T07:15:08.808Z,5.5
2018-04-12T07:16:11.491Z,5.5
2018-04-12T07:17:13.866Z,5.5
2018-04-12T07:18:16.258Z,5.5
2018-04-12T07:19:18.648Z,5.6
2018-04-12T07:20:21.016Z,5.5
2018-04-12T07:21:23.389Z,5.4
2018-04-12T07:22:25.764Z,6
2018-04-12T07:23:28.153Z,5.6
2018-04-12T07:24:30.531Z,5.6
2018-04-12T07:25:32.912Z,5.6
2018-04-12T07:26:35.306Z,5.5
2018-04-12T07:27:37.686Z,5.5
2018-04-12T07:28:40.077Z,5.5
2018-04-12T07:29:42.748Z,5.6
2018-04-12T07:30:45.122Z,5.6
2018-04-12T07:31:47.556Z,5.6
2018-04-12T07:32:49.945Z,5.6
2018-04-12T07:33:52.319Z,5.5
2018-04-12T07:34:54.704Z,5.7
2018-04-12T07:35:57.077Z,5.5
2018-04-12T07:36:59.457Z,5.7
2018-04-12T07:38:02.429Z,5.7
2018-04-12T07:39:04.797Z,5.6
2018-04-12T07:40:07.192Z,5.7
2018-04-12T07:41:10.156Z,5.6
2018-04-12T07:42:12.553Z,5.6
2018-04-12T07:43:14.924Z,5.6
2018-04-12T07:44:17.593Z,5.6
2018-04-12T07:45:19.986Z,5.7
2018-04-12T07:46:22.370Z,5.7
2018-04-12T07:47:25.052Z,5.7
2018-04-12T07:48:27.438Z,5.7
2018-04-12T07:49:29.818Z,5.6
2018-04-12T07:50:32.209Z,5.7
2018-04-12T07:51:34.584Z,5.7
2018-04-12T07:52:36.965Z,5.6
2018-04-12T07:53:39.353Z,5.7
2018-04-12T07:54:41.735Z,5.8
2018-04-12T07:55:44.123Z,5.8
2018-04-12T07:56:46.501Z,5.6
2018-04-12T07:57:49.273Z,5.6
2018-04-12T07:58:51.661Z,5.8
2018-04-12T07:59:54.044Z,5.8
2018-04-12T08:00:56.436Z,5.7
2018-04-12T08:01:58.808Z,5.8
2018-04-12T08:03:01.196Z,5.6
2018-04-12T08:04:03.584Z,5.6
2018-04-12T08:05:06.243Z,5.7
2018-04-12T08:06:08.624Z,5.7
2018-04-12T08:07:11.017Z,5.7
2018-04-12T08:08:13.399Z,5.7
2018-04-12T08:09:15.792Z,5.8
2018-04-12T08:10:18.179Z,5.7
2018-04-12T08:11:20.560Z,5.7
2018-04-12T08:12:22.948Z,5.8
2018-04-12T08:13:26.023Z,5.8
2018-04-12T08:14:28.410Z,5.7
2018-04-12T08:15:30.790Z,5.7
2018-04-12T08:16:33.177Z,5.7
2018-04-12T08:17:36.228Z,5.7
2018-04-12T08:18:38.625Z,5.7
2018-04-12T08:19:41.572Z,5.7
2018-04-12T08:20:43.963Z,5.8
2018-04-12T08:21:46.349Z,5.8
2018-04-12T08:22:48.747Z,5.8
2018-04-12T08:23:51.129Z,5.7
2018-04-12T08:24:53.534Z,5.8
2018-04-12T08:25:56.618Z,5.8
2018-04-12T08:26:59.577Z,5.8
2018-04-12T08:28:01.961Z,5.9
2018-04-12T08:29:04.358Z,5.9
2018-04-12T08:30:06.734Z,5.9
2018-04-12T08:31:09.134Z,5.9
2018-04-12T08:32:11.518Z,5.7
2018-04-12T08:33:13.915Z,5.7
2018-04-12T08:34:16.289Z,5.8
2018-04-12T08:35:18.676Z,5.9
2018-04-12T08:36:21.064Z,6
2018-04-12T08:37:23.453Z,5.8
2018-04-12T08:38:26.408Z,5.7
2018-04-12T08:39:29.078Z,5.8
2018-04-12T08:40:31.844Z,5.8
2018-04-12T08:41:34.237Z,5.8
2018-04-12T08:42:36.928Z,5.9
2018-04-12T08:43:39.306Z,5.9
2018-04-12T08:44:41.698Z,5.9
2018-04-12T08:45:44.080Z,5.8
2018-04-12T08:46:46.468Z,5.9
2018-04-12T08:47:48.860Z,5.8
2018-04-12T08:48:51.249Z,5.9
2018-04-12T08:49:53.641Z,5.9
2018-04-12T08:50:56.308Z,5.9
2018-04-12T08:51:59.054Z,5.9
2018-04-12T08:53:02.413Z,5.9
2018-04-12T08:54:04.788Z,5.9
2018-04-12T08:55:07.181Z,5.9
2018-04-12T08:56:09.580Z,5.9
2018-04-12T08:57:12.003Z,5.9
2018-04-12T08:58:14.369Z,6
2018-04-12T08:59:17.051Z,6
2018-04-12T09:00:19.431Z,5.9
2018-04-12T09:01:22.607Z,5.9
2018-04-12T09:02:25.344Z,6
2018-04-12T09:03:27.738Z,6
2018-04-12T09:04:30.122Z,6
2018-04-12T09:05:33.094Z,6
2018-04-12T09:06:35.485Z,6.2
2018-04-12T09:07:37.883Z,6.1
2018-04-12T09:08:40.267Z,5.9
2018-04-12T09:09:42.665Z,5.9
2018-04-12T09:10:45.054Z,6
2018-04-12T09:11:47.829Z,6
2018-04-12T09:12:50.606Z,6.1
2018-04-12T09:13:53.002Z,6.1
2018-04-12T09:14:55.780Z,6.1
2018-04-12T09:15:58.178Z,6
2018-04-12T09:17:00.573Z,6
2018-04-12T09:18:02.981Z,6
2018-04-12T09:19:05.924Z,6.1
2018-04-12T09:20:08.705Z,6.2
2018-04-12T09:21:11.100Z,6
2018-04-12T09:22:13.487Z,6.1
2018-04-12T09:23:16.269Z,6.1
2018-04-12T09:24:18.657Z,6.1
2018-04-12T09:25:21.043Z,6
2018-04-12T09:26:23.724Z,6.1
2018-04-12T09:27:26.503Z,6.1
2018-04-12T09:28:28.887Z,6.2
2018-04-12T09:29:31.670Z,6
2018-04-12T09:30:34.346Z,6.2
2018-04-12T09:31:36.729Z,6.1
2018-04-12T09:32:39.141Z,6.1
2018-04-12T09:33:41.569Z,6.2
2018-04-12T09:34:43.968Z,6.2
2018-04-12T09:35:46.653Z,6.2
2018-04-12T09:36:49.144Z,6.2
2018-04-12T09:37:51.924Z,6.2
2018-04-12T09:38:54.318Z,6.3
2018-04-12T09:39:56.707Z,6.2
2018-04-12T09:40:59.095Z,6.2
2018-04-12T09:42:01.778Z,6.3
2018-04-12T09:43:04.461Z,6.3
2018-04-12T09:44:06.845Z,6.2
2018-04-12T09:45:09.245Z,6.2
2018-04-12T09:46:11.641Z,6.2
2018-04-12T09:47:14.037Z,6.2
2018-04-12T09:48:16.719Z,6.1
2018-04-12T09:49:19.624Z,6.4
2018-04-12T09:50:21.910Z,6.2
2018-04-12T09:51:24.323Z,6.4
2018-04-12T09:52:26.713Z,6.3
2018-04-12T09:53:29.111Z,6.3
2018-04-12T09:54:31.509Z,6.3
2018-04-12T09:55:33.907Z,6.2
2018-04-12T09:56:36.315Z,6.2
2018-04-12T09:57:38.707Z,6.2
2018-04-12T09:58:41.093Z,6.2
2018-04-12T09:59:43.497Z,6.4
2018-04-12T10:00:46.277Z,6.3
2018-04-12T10:01:48.990Z,6.3
2018-04-12T10:02:51.360Z,6.3
2018-04-12T10:03:53.749Z,6.2
2018-04-12T10:04:56.147Z,6.4
2018-04-12T10:05:58.547Z,6.4
2018-04-12T10:07:01.226Z,6.2
2018-04-12T10:08:03.625Z,6.2
2018-04-12T10:09:06.301Z,6.2
2018-04-12T10:10:08.698Z,6.2
2018-04-12T10:11:11.091Z,6.3
2018-04-12T10:12:13.492Z,6.3
2018-04-12T10:13:16.164Z,6.2
2018-04-12T10:14:18.555Z,6.3
2018-04-12T10:15:20.961Z,6.3
2018-04-12T10:16:23.352Z,6.3
2018-04-12T10:17:25.744Z,6.2
2018-04-12T10:18:28.139Z,6.2
2018-04-12T10:19:30.530Z,6.2
2018-04-12T10:20:33.316Z,6.2
2018-04-12T10:21:36.024Z,6.3
2018-04-12T10:22:38.403Z,6.2
2018-04-12T10:23:40.810Z,6.2
2018-04-12T10:24:43.212Z,6.3
2018-04-12T10:25:45.881Z,6.2
2018-04-12T10:26:48.576Z,6.2
2018-04-12T10:27:50.972Z,6.2
2018-04-12T10:28:53.369Z,6.2
2018-04-12T10:29:55.772Z,6.2
2018-04-12T10:30:58.170Z,6.2
2018-04-12T10:32:00.555Z,6.2
2018-04-12T10:33:02.964Z,6.2
2018-04-12T10:34:05.367Z,6.2
2018-04-12T10:35:07.754Z,6.2
2018-04-12T10:36:10.185Z,6.3
2018-04-12T10:37:12.542Z,6.2
2018-04-12T10:38:14.934Z,6.2
2018-04-12T10:39:17.785Z,6.2
2018-04-12T10:40:20.150Z,6.2
2018-04-12T10:41:22.819Z,6.2
2018-04-12T10:42:25.211Z,6.2
2018-04-12T10:43:27.612Z,6.2
2018-04-12T10:44:30.006Z,6.2
2018-04-12T10:45:32.393Z,6.3
2018-04-12T10:46:35.072Z,6.2
2018-04-12T10:47:37.466Z,6.3
2018-04-12T10:48:40.179Z,6.3
2018-04-12T10:49:42.582Z,6.3
2018-04-12T10:50:44.965Z,6.2
2018-04-12T10:51:47.410Z,6.2
2018-04-12T10:52:49.770Z,6.4
2018-04-12T10:53:52.735Z,6.4
2018-04-12T10:54:55.510Z,6.3
2018-04-12T10:55:57.914Z,6.5
2018-04-12T10:57:00.317Z,6.4
2018-04-12T10:58:03.566Z,6.4
2018-04-12T10:59:06.354Z,6.3
2018-04-12T11:00:08.755Z,6.4
2018-04-12T11:01:11.143Z,6.3
2018-04-12T11:02:13.546Z,6.5
2018-04-12T11:03:16.793Z,6.4
2018-04-12T11:04:19.254Z,6.3
2018-04-12T11:05:22.887Z,6.4
2018-04-12T11:06:25.406Z,6.4
2018-04-12T11:07:27.802Z,6.3
2018-04-12T11:08:30.205Z,6.3
2018-04-12T11:09:32.603Z,6.4
2018-04-12T11:10:34.997Z,6.4
2018-04-12T11:11:37.402Z,6.4
2018-04-12T11:12:40.089Z,6.3
2018-04-12T11:13:42.481Z,6.3
2018-04-12T11:14:45.552Z,6.3
2018-04-12T11:15:48.324Z,6.3
2018-04-12T11:16:50.729Z,6.3
2018-04-12T11:17:53.176Z,6.3
2018-04-12T11:18:55.895Z,6.3
2018-04-12T11:19:58.677Z,6.3
2018-04-12T11:21:01.276Z,6.3
2018-04-12T11:22:03.577Z,6.3
2018-04-12T11:23:06.409Z,6.3
2018-04-12T11:24:09.756Z,6.3
2018-04-12T11:25:12.769Z,6.3
2018-04-12T11:26:15.177Z,6.3
2018-04-12T11:27:17.630Z,6.4
2018-04-12T11:28:20.035Z,6.3
2018-04-12T11:29:22.540Z,6.4
2018-04-12T11:30:25.167Z,6.3
2018-04-12T11:31:27.620Z,6.3
2018-04-12T11:32:30.014Z,6.4
2018-04-12T11:33:32.424Z,6.4
2018-04-12T11:34:35.251Z,6.4
2018-04-12T11:35:37.684Z,6.4
2018-04-12T11:36:40.747Z,6.4
2018-04-12T11:37:43.231Z,6.4
2018-04-12T11:38:45.626Z,6.4
2018-04-12T11:39:48.074Z,6.4
2018-04-12T11:40:50.464Z,6.4
2018-04-12T11:41:52.915Z,6.4
2018-04-12T11:42:55.667Z,6.4
2018-04-12T11:43:58.013Z,6.4
2018-04-12T11:45:00.407Z,6.4
2018-04-12T11:46:02.867Z,6.4
2018-04-12T11:47:05.925Z,6.4
2018-04-12T11:48:09.051Z,6.5
2018-04-12T11:49:11.445Z,6.4
2018-04-12T11:50:13.851Z,6.4
2018-04-12T11:51:16.246Z,6.4
2018-04-12T11:52:18.727Z,6.4
2018-04-12T11:53:21.500Z,6.4
2018-04-12T11:54:24.294Z,6.5
2018-04-12T11:55:27.036Z,6.5
2018-04-12T11:56:29.544Z,6.4
2018-04-12T11:57:31.924Z,6.4
2018-04-12T11:58:34.912Z,6.4
2018-04-12T11:59:37.303Z,6.4
2018-04-12T12:00:40.648Z,6.4
2018-04-12T12:01:43.240Z,6.6
2018-04-12T12:02:45.633Z,6.4
2018-04-12T12:03:48.321Z,6.4
2018-04-12T12:04:51.086Z,6.5
2018-04-12T12:05:53.512Z,6.4
2018-04-12T12:06:55.946Z,6.4
2018-04-12T12:07:58.636Z,6.4
2018-04-12T12:09:01.120Z,6.4
2018-04-12T12:10:03.527Z,6.4
2018-04-12T12:11:06.088Z,6.4
2018-04-12T12:12:08.476Z,6.4
2018-04-12T12:13:11.229Z,6.3
2018-04-12T12:14:13.629Z,6.4
2018-04-12T12:15:16.261Z,6.4
2018-04-12T12:16:19.047Z,6.3
2018-04-12T12:17:21.436Z,6.3
2018-04-12T12:18:23.835Z,6.3
2018-04-12T12:19:26.347Z,6.4
2018-04-12T12:20:29.033Z,6.4
2018-04-12T12:21:31.852Z,6.4
2018-04-12T12:22:34.243Z,6.3
2018-04-12T12:23:36.684Z,6.3
2018-04-12T12:24:39.073Z,6.3
2018-04-12T12:25:41.478Z,6.5
2018-04-12T12:26:44.444Z,6.3
2018-04-12T12:27:46.901Z,6.3
2018-04-12T12:28:49.653Z,6.3
2018-04-12T12:29:52.121Z,6.3
2018-04-12T12:30:54.516Z,6.3
2018-04-12T12:31:56.993Z,6.3
2018-04-12T12:32:59.392Z,6.3
2018-04-12T12:34:01.848Z,6.2
2018-04-12T12:35:04.274Z,6.3
2018-04-12T12:36:06.684Z,6.3
2018-04-12T12:37:09.123Z,6.2
2018-04-12T12:38:11.582Z,6.2
2018-04-12T12:39:13.974Z,6.2
2018-04-12T12:40:16.372Z,6.1
2018-04-12T12:41:18.768Z,6.2
2018-04-12T12:42:21.739Z,6.2
2018-04-12T12:43:24.131Z,6.2
2018-04-12T12:44:26.910Z,6.1
2018-04-12T12:45:29.301Z,6.1
2018-04-12T12:46:31.691Z,6.1
2018-04-12T12:47:34.371Z,6.2
2018-04-12T12:48:37.142Z,6.2
2018-04-12T12:49:39.533Z,6.1
2018-04-12T12:50:41.987Z,6.3
2018-04-12T12:51:44.947Z,6.2
2018-04-12T12:52:47.339Z,6.2
2018-04-12T12:53:49.739Z,6.1
2018-04-12T12:54:52.127Z,6.1
2018-04-12T12:55:55.299Z,6.2
2018-04-12T12:56:58.020Z,6.2
2018-04-12T12:58:00.463Z,6.1
2018-04-12T12:59:03.196Z,6.3
2018-04-12T13:00:05.590Z,6.3
2018-04-12T13:01:07.983Z,6.1
2018-04-12T13:02:10.383Z,6.2
2018-04-12T13:03:12.769Z,6.1
2018-04-12T13:04:15.147Z,6.2
2018-04-12T13:05:17.546Z,6
2018-04-12T13:06:19.937Z,6.1
2018-04-12T13:07:22.336Z,6.2
2018-04-12T13:08:25.002Z,6.2
2018-04-12T13:09:27.687Z,6.2
2018-04-12T13:10:30.371Z,6.1
2018-04-12T13:11:32.754Z,6.2
2018-04-12T13:12:35.158Z,6.1
2018-04-12T13:13:37.542Z,6.1
2018-04-12T13:14:39.935Z,6.1
2018-04-12T13:15:42.335Z,6
2018-04-12T13:16:44.716Z,6.1
2018-04-12T13:17:47.110Z,6.1
2018-04-12T13:18:49.498Z,6.1
2018-04-12T13:19:52.180Z,6.1
2018-04-12T13:20:54.570Z,6
2018-04-12T13:21:57.635Z,6.1
2018-04-12T13:23:00.025Z,6.2
2018-04-12T13:24:02.422Z,6.2
2018-04-12T13:25:05.568Z,6.1
2018-04-12T13:26:07.918Z,6.1
2018-04-12T13:27:10.593Z,6.2
2018-04-12T13:28:12.992Z,6.1
2018-04-12T13:29:15.695Z,6.2
2018-04-12T13:30:18.060Z,6.1
2018-04-12T13:31:20.752Z,6.2
2018-04-12T13:32:23.129Z,6.2
2018-04-12T13:33:25.810Z,6.2
2018-04-12T13:34:28.209Z,6.2
2018-04-12T13:35:30.880Z,6.3
2018-04-12T13:36:33.561Z,6.1
2018-04-12T13:37:35.966Z,6.2
2018-04-12T13:38:38.356Z,6.3
2018-04-12T13:39:40.754Z,6.2
2018-04-12T13:40:43.151Z,6.2
2018-04-12T13:41:45.553Z,6.3
2018-04-12T13:42:48.210Z,6.3
2018-04-12T13:43:50.614Z,6.3
2018-04-12T13:44:53.015Z,6.3
2018-04-12T13:45:55.406Z,6.3
2018-04-12T13:46:57.806Z,6.3
2018-04-12T13:48:00.489Z,6.3
2018-04-12T13:49:02.890Z,6.3
2018-04-12T13:50:05.296Z,6.4
2018-04-12T13:51:07.697Z,6.2
2018-04-12T13:52:10.363Z,6.3
2018-04-12T13:53:12.760Z,6.3
2018-04-12T13:54:15.159Z,6.3
2018-04-12T13:55:17.622Z,6.3
2018-04-12T13:56:20.636Z,6.4
2018-04-12T13:57:23.019Z,6.3
2018-04-12T13:58:25.699Z,6.4
2018-04-12T13:59:28.110Z,6.4
2018-04-12T14:00:30.497Z,6.6
2018-04-12T14:01:33.199Z,6.5
2018-04-12T14:02:35.601Z,6.4
2018-04-12T14:03:37.990Z,6.5
2018-04-12T14:04:41.137Z,6.5
2018-04-12T14:05:43.796Z,6.4
2018-04-12T14:06:46.491Z,6.5
2018-04-12T14:07:48.894Z,6.4
2018-04-12T14:08:51.281Z,6.4
2018-04-12T14:09:53.683Z,6.5
2018-04-12T14:10:56.469Z,6.5
2018-04-12T14:11:59.162Z,6.4
2018-04-12T14:13:01.553Z,6.4
2018-04-12T14:14:03.959Z,6.4
2018-04-12T14:15:06.723Z,6.4
2018-04-12T14:16:09.426Z,6.6
2018-04-12T14:17:12.206Z,6.6
2018-04-12T14:18:14.551Z,6.5
2018-04-12T14:19:17.236Z,6.4
2018-04-12T14:20:19.632Z,6.4
2018-04-12T14:21:22.032Z,6.5
2018-04-12T14:22:24.711Z,6.5
2018-04-12T14:23:27.114Z,6.5
2018-04-12T14:24:29.506Z,6.8
2018-04-12T14:25:31.911Z,6.8